Het weer levert geen direct gevaar op.    Er zijn geen waarschuwingen afgegeven.

Onweer radar more information blitzortung!


Regen radar more information rain snow radar


Meteo Sauwerd

Weerstation Alkmaar Centrum

Weerstation Luyksgestel

Website Noardburgum



METAR rapporten vliegvelden

   
EHLW - Leeuwarden Rnlaf, Netherlands
Afstand tot: W 17 km
Gewijzigd: 21-06-2018 17:25
Grotendeels bewolkt  
Grotendeels bewolkt  
   Wind: NW 39 km/h
Wind: NW 39 km/h
Temperatuur: 14°C
Dauwpunt: 7°C
Vochtigheid: 63%
Barometer: 1021 hPa
Bewolking: Grotendeels bewolkt
Zicht: meer dan 10 km
Bewolking: Licht bewolkt 2800 ft,
Gedeeltelijk bewolkt 3100 ft,
Grotendeels bewolkt 4700 ft
EHLW 211525Z AUTO 32021KT 260V360 9999 FEW028/// SCT031/// BKN047/// 14/07 Q1021 BLU
EHMA - Awg-1 Sea, Netherlands
Afstand tot: N 31 km
Gewijzigd: 21-06-2018 17:25
Gedeeltelijk bewolkt  
Gedeeltelijk bewolkt  
   Wind: WNW 57 km/h
Wind: WNW 57 km/h
Temperatuur: 14°C
Dauwpunt: 8°C
Vochtigheid: 67%
Barometer: 1019 hPa
Bewolking: Gedeeltelijk bewolkt
Zicht: meer dan 10 km
Bewolking: Licht bewolkt 2200 ft,
Gedeeltelijk bewolkt 3300 ft
EHMA 211525Z AUTO 30031KT 9999 FEW022/// SCT033/// 14/08 Q1019 W///H///
EHGG - Groningen/Eelde, Netherlands
Afstand tot: OZO 40 km
Gewijzigd: 21-06-2018 17:25
Gedeeltelijk bewolkt  
Gedeeltelijk bewolkt  
   Wind: NW 32 km/h
Wind: NW 32 km/h
Temperatuur: 14°C
Dauwpunt: 8°C
Vochtigheid: 67%
Barometer: 1020 hPa
Bewolking: Gedeeltelijk bewolkt
Zicht: meer dan 10 km
Bewolking: Licht bewolkt 3200 ft,
Gedeeltelijk bewolkt 4500 ft
EHGG 211525Z AUTO 31017KT 270V340 9999 FEW032/// SCT045/// 14/08 Q1020 TEMPO 7000 SHRA FEW020CB
EHVL - Vlieland Island, Netherlands
Afstand tot: W 72 km
Gewijzigd: 21-06-2018 17:38
Grotendeels bewolkt  
Grotendeels bewolkt  
   Wind: NW 48 km/h
Wind: NW 48 km/h
Temperatuur: 14°C
Dauwpunt: 9°C
Vochtigheid: 72%
Barometer: 1022 hPa
Bewolking: Grotendeels bewolkt
Zicht: meer dan 10 km
Bewolking: Licht bewolkt 2400 ft,
Gedeeltelijk bewolkt 2700 ft,
Grotendeels bewolkt 4300 ft
EHVL 211538Z AUTO 32026KT 9999 FEW024/// SCT027/// BKN043/// 14/09 Q1022 BLU
EHMG - L9-Ff-1 Sea, Netherlands
Afstand tot: WNW 81 km
Gewijzigd: 21-06-2018 17:25
Licht bewolkt  
Licht bewolkt  
   Wind: NW 63 km/h
Wind: NW 63 km/h
Temperatuur: 13°C
Dauwpunt: 7°C
Vochtigheid: 67%
Barometer: 1021 hPa
Bewolking: Licht bewolkt
Zicht: meer dan 10 km
Bewolking: Licht bewolkt 2200 ft
EHMG 211525Z AUTO 31034KT 9999 FEW022/// 13/07 Q1021 W///H///
EHKD - De Kooy (navy), Netherlands
Afstand tot: WZW 89 km
Gewijzigd: 21-06-2018 17:25
Grotendeels bewolkt  
Grotendeels bewolkt  
   Wind: WNW 32 km/h
Wind: WNW 32 km/h
Temperatuur: 14°C
Dauwpunt: 8°C
Vochtigheid: 67%
Barometer: 1022 hPa
Bewolking: Grotendeels bewolkt
Zicht: meer dan 10 km
Bewolking: Gedeeltelijk bewolkt 2200 ft,
Grotendeels bewolkt 2600 ft,
Grotendeels bewolkt 4200 ft
EHKD 211525Z AUTO 30017KT 270V350 9999 SCT022/// BKN026/// BKN042/// 14/08 Q1022 WHT 31018G30KT 9999 FEW025 BKN030 TEMPO 32020G35KT FEW020CB

Script ontwikkeld door  Saratoga-weather.org Aangepast voor de template door  Weerstation Leuven

U vindt ons ook hier:

Het Weer Aktueel

UK Metoffice

European Weather Network

Weather Underground

AWEKAS

Citizen Weather Observer Program (CWOP)

HAMweather, WeatherForYou, PWS Weather

Apparatuur in gebruik:

Weerstation
Davis Vantage pro 2

Weerprogramma
Meteobridge

Weercomputer
TP-Link TL-WR703N

Webleverancier
Versio

Davis Vantage pro 2

Meteobridge

TP-Link TL-WR703N

Versio